San Antonio, Texas
Current Conditions -  °F | °C
As of 9:28 AM on Friday 21 Nov 2014 (Local Time) from KSKF Reporting Station
Overcast Overcast  
Wind Chill: 66°   Ceiling: 700
Heat Index: 66°   Visibility: 10mi
Dew Point: 66°   Wind: 7mph
Humidity: 100%   Direction: 170°S
Pressure: 30.09"   Gusts: NA
Location:  29.42°N, 98.49°W
Report Text: KSKF 211528Z AUTO 17006KT 10SM OVC007 19/19 A3009 RMK AO2 $
Loading
Personal Weather Stations






























Interactive Weather Map New forecast layout! Learn more

10-Day Weather Forecast

Advertisements
Track Severe Weather on mobile